sensor_id;sensor_type;location;lat;lon;timestamp;pressure;altitude;pressure_sealevel;temperature;humidity
70217;BME280;57608;0.000;0.000;2022-09-02T00:00:44;98613.56;;;22.18;35.77
70217;BME280;57608;0.000;0.000;2022-09-02T00:03:11;98618.38;;;22.14;35.59
70217;BME280;57608;0.000;0.000;2022-09-02T00:05:37;98626.88;;;22.09;35.71
70217;BME280;57608;0.000;0.000;2022-09-02T00:08:03;98622.56;;;22.08;35.75
70217;BME280;57608;0.000;0.000;2022-09-02T00:10:30;98621.72;;;22.08;35.83
70217;BME280;57608;0.000;0.000;2022-09-02T00:12:55;98621.53;;;22.09;35.61
70217;BME280;57608;0.000;0.000;2022-09-02T00:15:21;98627.56;;;22.11;35.67
70217;BME280;57608;0.000;0.000;2022-09-02T00:17:49;98622.03;;;22.13;35.80
70217;BME280;57608;0.000;0.000;2022-09-02T00:20:15;98621.56;;;22.18;35.84
70217;BME280;57608;0.000;0.000;2022-09-02T00:22:41;98629.22;;;22.21;35.93
70217;BME280;57608;0.000;0.000;2022-09-02T00:25:06;98626.22;;;22.24;35.86
70217;BME280;57608;0.000;0.000;2022-09-02T00:27:32;98632.22;;;22.26;35.78
70217;BME280;57608;0.000;0.000;2022-09-02T00:29:58;98630.22;;;22.28;35.84
70217;BME280;57608;0.000;0.000;2022-09-02T00:32:23;98627.19;;;22.31;35.57
70217;BME280;57608;0.000;0.000;2022-09-02T00:34:49;98629.53;;;22.34;35.68
70217;BME280;57608;0.000;0.000;2022-09-02T00:37:14;98619.69;;;22.35;35.46
70217;BME280;57608;0.000;0.000;2022-09-02T00:39:41;98622.22;;;22.36;35.39
70217;BME280;57608;0.000;0.000;2022-09-02T00:42:10;98625.84;;;22.35;35.58
70217;BME280;57608;0.000;0.000;2022-09-02T00:44:36;98621.22;;;22.37;35.27
70217;BME280;57608;0.000;0.000;2022-09-02T00:47:01;98616.88;;;22.36;35.19
70217;BME280;57608;0.000;0.000;2022-09-02T00:49:29;98622.22;;;22.36;35.31
70217;BME280;57608;0.000;0.000;2022-09-02T00:52:06;98620.69;;;22.34;35.49
70217;BME280;57608;0.000;0.000;2022-09-02T00:54:36;98623.72;;;22.31;35.24
70217;BME280;57608;0.000;0.000;2022-09-02T00:57:09;98626.88;;;22.26;35.21
70217;BME280;57608;0.000;0.000;2022-09-02T01:00:04;98628.22;;;22.22;35.35
70217;BME280;57608;0.000;0.000;2022-09-02T01:02:30;98623.38;;;22.17;35.23
70217;BME280;57608;0.000;0.000;2022-09-02T01:05:00;98632.53;;;22.15;35.33
70217;BME280;57608;0.000;0.000;2022-09-02T01:07:29;98623.03;;;22.12;35.28
70217;BME280;57608;0.000;0.000;2022-09-02T01:09:55;98620.72;;;22.09;35.26
70217;BME280;57608;0.000;0.000;2022-09-02T01:12:22;98621.53;;;22.09;35.18
70217;BME280;57608;0.000;0.000;2022-09-02T01:14:49;98618.88;;;22.09;35.36
70217;BME280;57608;0.000;0.000;2022-09-02T01:17:15;98618.22;;;22.07;35.40
70217;BME280;57608;0.000;0.000;2022-09-02T01:19:48;98620.53;;;22.10;35.14
70217;BME280;57608;0.000;0.000;2022-09-02T01:22:24;98626.06;;;22.09;35.33
70217;BME280;57608;0.000;0.000;2022-09-02T01:24:50;98616.53;;;22.06;35.29
70217;BME280;57608;0.000;0.000;2022-09-02T01:27:18;98621.19;;;22.04;35.26
70217;BME280;57608;0.000;0.000;2022-09-02T01:29:45;98615.56;;;21.99;35.18
70217;BME280;57608;0.000;0.000;2022-09-02T01:32:11;98619.41;;;21.97;35.28
70217;BME280;57608;0.000;0.000;2022-09-02T01:34:37;98628.56;;;21.94;35.27
70217;BME280;57608;0.000;0.000;2022-09-02T01:37:02;98624.41;;;21.91;35.36
70217;BME280;57608;0.000;0.000;2022-09-02T01:39:28;98638.53;;;21.92;35.29
70217;BME280;57608;0.000;0.000;2022-09-02T01:41:54;98644.69;;;21.92;35.29
70217;BME280;57608;0.000;0.000;2022-09-02T01:44:20;98637.56;;;21.93;35.37
70217;BME280;57608;0.000;0.000;2022-09-02T01:46:46;98651.53;;;21.95;35.52
70217;BME280;57608;0.000;0.000;2022-09-02T01:49:12;98659.41;;;21.97;35.45
70217;BME280;57608;0.000;0.000;2022-09-02T01:51:37;98641.22;;;22.00;35.51
70217;BME280;57608;0.000;0.000;2022-09-02T01:54:03;98646.38;;;22.02;35.43
70217;BME280;57608;0.000;0.000;2022-09-02T01:56:29;98655.88;;;22.04;35.43
70217;BME280;57608;0.000;0.000;2022-09-02T01:58:54;98653.88;;;22.06;35.50
70217;BME280;57608;0.000;0.000;2022-09-02T02:01:20;98651.06;;;22.08;35.49
70217;BME280;57608;0.000;0.000;2022-09-02T02:03:45;98654.56;;;22.08;35.36
70217;BME280;57608;0.000;0.000;2022-09-02T02:06:14;98665.88;;;22.10;35.40
70217;BME280;57608;0.000;0.000;2022-09-02T02:08:41;98652.38;;;22.12;35.19
70217;BME280;57608;0.000;0.000;2022-09-02T02:11:07;98654.22;;;22.11;35.30
70217;BME280;57608;0.000;0.000;2022-09-02T02:13:33;98651.56;;;22.11;34.98
70217;BME280;57608;0.000;0.000;2022-09-02T02:15:59;98657.88;;;22.10;35.26
70217;BME280;57608;0.000;0.000;2022-09-02T02:18:25;98661.41;;;22.11;35.25
70217;BME280;57608;0.000;0.000;2022-09-02T02:20:50;98667.91;;;22.08;35.26
70217;BME280;57608;0.000;0.000;2022-09-02T02:23:16;98664.91;;;22.03;35.06
70217;BME280;57608;0.000;0.000;2022-09-02T02:25:42;98661.56;;;22.01;35.29
70217;BME280;57608;0.000;0.000;2022-09-02T02:28:07;98668.22;;;21.97;35.46
70217;BME280;57608;0.000;0.000;2022-09-02T02:30:33;98659.88;;;21.92;35.29
70217;BME280;57608;0.000;0.000;2022-09-02T02:32:59;98666.53;;;21.88;35.33
70217;BME280;57608;0.000;0.000;2022-09-02T02:35:25;98657.03;;;21.85;35.33
70217;BME280;57608;0.000;0.000;2022-09-02T02:37:51;98659.03;;;21.83;35.41
70217;BME280;57608;0.000;0.000;2022-09-02T02:40:20;98661.88;;;21.82;35.57
70217;BME280;57608;0.000;0.000;2022-09-02T02:42:46;98668.88;;;21.83;35.55
70217;BME280;57608;0.000;0.000;2022-09-02T02:45:11;98666.22;;;21.83;35.38
70217;BME280;57608;0.000;0.000;2022-09-02T02:47:39;98681.34;;;21.82;35.54
70217;BME280;57608;0.000;0.000;2022-09-02T02:50:10;98675.19;;;21.82;35.53
70217;BME280;57608;0.000;0.000;2022-09-02T02:52:38;98677.19;;;21.79;35.39
70217;BME280;57608;0.000;0.000;2022-09-02T02:55:04;98680.03;;;21.78;35.43
70217;BME280;57608;0.000;0.000;2022-09-02T02:57:32;98682.34;;;21.73;35.49
70217;BME280;57608;0.000;0.000;2022-09-02T03:00:04;98687.19;;;21.69;35.46
70217;BME280;57608;0.000;0.000;2022-09-02T03:02:30;98680.47;;;21.65;35.53
70217;BME280;57608;0.000;0.000;2022-09-02T03:04:57;98684.16;;;21.64;35.72
70217;BME280;57608;0.000;0.000;2022-09-02T03:07:23;98687.81;;;21.63;35.40
70217;BME280;57608;0.000;0.000;2022-09-02T03:09:48;98679.84;;;21.63;35.58
70217;BME280;57608;0.000;0.000;2022-09-02T03:12:13;98695.50;;;21.66;35.66
70217;BME280;57608;0.000;0.000;2022-09-02T03:14:40;98697.16;;;21.67;35.56
70217;BME280;57608;0.000;0.000;2022-09-02T03:17:06;98699.50;;;21.70;35.51
70217;BME280;57608;0.000;0.000;2022-09-02T03:19:31;98701.00;;;21.73;35.33
70217;BME280;57608;0.000;0.000;2022-09-02T03:21:57;98697.34;;;21.74;35.43
70217;BME280;57608;0.000;0.000;2022-09-02T03:24:23;98699.66;;;21.77;35.55
70217;BME280;57608;0.000;0.000;2022-09-02T03:26:49;98702.19;;;21.78;35.42
70217;BME280;57608;0.000;0.000;2022-09-02T03:29:14;98701.19;;;21.79;35.37
70217;BME280;57608;0.000;0.000;2022-09-02T03:31:39;98697.34;;;21.82;35.33
70217;BME280;57608;0.000;0.000;2022-09-02T03:34:05;98699.88;;;21.84;35.11
70217;BME280;57608;0.000;0.000;2022-09-02T03:36:35;98696.19;;;21.85;35.32
70217;BME280;57608;0.000;0.000;2022-09-02T03:39:02;98700.53;;;21.86;35.11
70217;BME280;57608;0.000;0.000;2022-09-02T03:41:28;98697.03;;;21.85;35.15
70217;BME280;57608;0.000;0.000;2022-09-02T03:43:54;98705.88;;;21.86;35.21
70217;BME280;57608;0.000;0.000;2022-09-02T03:46:20;98702.19;;;21.87;35.18
70217;BME280;57608;0.000;0.000;2022-09-02T03:48:45;98692.69;;;21.84;35.24
70217;BME280;57608;0.000;0.000;2022-09-02T03:51:11;98707.19;;;21.82;35.05
70217;BME280;57608;0.000;0.000;2022-09-02T03:53:37;98707.66;;;21.77;35.12
70217;BME280;57608;0.000;0.000;2022-09-02T03:56:06;98713.50;;;21.72;35.00
70217;BME280;57608;0.000;0.000;2022-09-02T03:58:32;98705.84;;;21.69;35.00
70217;BME280;57608;0.000;0.000;2022-09-02T04:00:58;98718.81;;;21.64;34.93
70217;BME280;57608;0.000;0.000;2022-09-02T04:03:24;98722.78;;;21.60;34.91
70217;BME280;57608;0.000;0.000;2022-09-02T04:05:50;98728.44;;;21.57;34.93
70217;BME280;57608;0.000;0.000;2022-09-02T04:08:17;98733.09;;;21.55;34.91
70217;BME280;57608;0.000;0.000;2022-09-02T04:10:43;98736.59;;;21.55;35.02
70217;BME280;57608;0.000;0.000;2022-09-02T04:13:09;98739.09;;;21.57;35.13
70217;BME280;57608;0.000;0.000;2022-09-02T04:15:39;98733.94;;;21.55;35.20
70217;BME280;57608;0.000;0.000;2022-09-02T04:18:08;98737.44;;;21.56;35.07
70217;BME280;57608;0.000;0.000;2022-09-02T04:20:36;98735.75;;;21.55;34.92
70217;BME280;57608;0.000;0.000;2022-09-02T04:23:02;98735.06;;;21.53;35.04
70217;BME280;57608;0.000;0.000;2022-09-02T04:25:28;98745.22;;;21.49;35.06
70217;BME280;57608;0.000;0.000;2022-09-02T04:27:53;98738.38;;;21.46;34.99
70217;BME280;57608;0.000;0.000;2022-09-02T04:30:19;98741.38;;;21.43;34.99
70217;BME280;57608;0.000;0.000;2022-09-02T04:32:45;98743.50;;;21.40;34.94
70217;BME280;57608;0.000;0.000;2022-09-02T04:35:11;98744.66;;;21.37;34.93
70217;BME280;57608;0.000;0.000;2022-09-02T04:37:37;98744.66;;;21.37;34.92
70217;BME280;57608;0.000;0.000;2022-09-02T04:40:02;98751.66;;;21.38;35.07
70217;BME280;57608;0.000;0.000;2022-09-02T04:42:28;98737.34;;;21.39;35.18
70217;BME280;57608;0.000;0.000;2022-09-02T04:44:54;98749.34;;;21.43;35.06
70217;BME280;57608;0.000;0.000;2022-09-02T04:47:22;98749.03;;;21.46;35.12
70217;BME280;57608;0.000;0.000;2022-09-02T04:49:49;98751.34;;;21.50;35.08
70217;BME280;57608;0.000;0.000;2022-09-02T04:52:18;98752.88;;;21.52;34.96
70217;BME280;57608;0.000;0.000;2022-09-02T04:54:48;98755.25;;;21.55;34.81
70217;BME280;57608;0.000;0.000;2022-09-02T04:57:14;98747.09;;;21.57;34.83
70217;BME280;57608;0.000;0.000;2022-09-02T04:59:40;98759.44;;;21.58;34.82
70217;BME280;57608;0.000;0.000;2022-09-02T05:02:09;98760.25;;;21.58;34.87
70217;BME280;57608;0.000;0.000;2022-09-02T05:04:35;98767.09;;;21.61;34.87
70217;BME280;57608;0.000;0.000;2022-09-02T05:07:01;98763.44;;;21.62;34.90
70217;BME280;57608;0.000;0.000;2022-09-02T05:09:28;98758.81;;;21.64;34.83
70217;BME280;57608;0.000;0.000;2022-09-02T05:11:54;98765.13;;;21.63;35.07
70217;BME280;57608;0.000;0.000;2022-09-02T05:14:24;98761.47;;;21.64;35.15
70217;BME280;57608;0.000;0.000;2022-09-02T05:16:50;98773.94;;;21.64;35.10
70217;BME280;57608;0.000;0.000;2022-09-02T05:19:20;98771.28;;;21.64;35.21
70217;BME280;57608;0.000;0.000;2022-09-02T05:21:48;98765.44;;;21.60;35.16
70217;BME280;57608;0.000;0.000;2022-09-02T05:24:14;98769.13;;;21.59;35.19
70217;BME280;57608;0.000;0.000;2022-09-02T05:26:43;98773.91;;;21.55;35.38
70217;BME280;57608;0.000;0.000;2022-09-02T05:29:10;98777.56;;;21.54;35.48
70217;BME280;57608;0.000;0.000;2022-09-02T05:31:36;98784.84;;;21.52;35.54
70217;BME280;57608;0.000;0.000;2022-09-02T05:34:02;98791.19;;;21.51;35.61
70217;BME280;57608;0.000;0.000;2022-09-02T05:36:28;98788.38;;;21.53;36.10
70217;BME280;57608;0.000;0.000;2022-09-02T05:38:53;98789.06;;;21.55;36.41
70217;BME280;57608;0.000;0.000;2022-09-02T05:41:22;98793.09;;;21.59;36.76
70217;BME280;57608;0.000;0.000;2022-09-02T05:43:51;98800.44;;;21.65;36.56
70217;BME280;57608;0.000;0.000;2022-09-02T05:46:20;98804.47;;;21.69;36.56
70217;BME280;57608;0.000;0.000;2022-09-02T05:48:46;98804.97;;;21.73;36.42
70217;BME280;57608;0.000;0.000;2022-09-02T05:51:33;98807.47;;;21.74;36.21
70217;BME280;57608;0.000;0.000;2022-09-02T05:54:01;98815.34;;;21.76;36.14
70217;BME280;57608;0.000;0.000;2022-09-02T05:56:29;98808.97;;;21.77;35.99
70217;BME280;57608;0.000;0.000;2022-09-02T05:58:57;98814.19;;;21.78;35.76
70217;BME280;57608;0.000;0.000;2022-09-02T06:01:24;98810.34;;;21.81;35.81
70217;BME280;57608;0.000;0.000;2022-09-02T06:03:52;98810.84;;;21.85;35.59
70217;BME280;57608;0.000;0.000;2022-09-02T06:06:18;98815.88;;;21.88;35.46
70217;BME280;57608;0.000;0.000;2022-09-02T06:08:47;98809.38;;;21.90;35.35
70217;BME280;57608;0.000;0.000;2022-09-02T06:11:12;98816.22;;;21.93;35.25
70217;BME280;57608;0.000;0.000;2022-09-02T06:13:40;98822.22;;;21.95;35.36
70217;BME280;57608;0.000;0.000;2022-09-02T06:16:07;98817.56;;;21.97;35.22
70217;BME280;57608;0.000;0.000;2022-09-02T06:18:34;98821.91;;;21.98;35.06
70217;BME280;57608;0.000;0.000;2022-09-02T06:21:02;98823.59;;;21.99;35.00
70217;BME280;57608;0.000;0.000;2022-09-02T06:23:28;98826.25;;;21.99;34.81
70217;BME280;57608;0.000;0.000;2022-09-02T06:25:53;98826.09;;;22.01;34.89
70217;BME280;57608;0.000;0.000;2022-09-02T06:28:19;98833.94;;;22.02;35.52
70217;BME280;57608;0.000;0.000;2022-09-02T06:30:45;98840.09;;;22.03;35.44
70217;BME280;57608;0.000;0.000;2022-09-02T06:33:12;98835.25;;;22.06;35.33
70217;BME280;57608;0.000;0.000;2022-09-02T06:35:41;98862.09;;;22.05;35.28
70217;BME280;57608;0.000;0.000;2022-09-02T06:38:07;98847.09;;;22.04;35.29
70217;BME280;57608;0.000;0.000;2022-09-02T06:40:33;98854.41;;;22.02;35.42
70217;BME280;57608;0.000;0.000;2022-09-02T06:42:58;98871.91;;;21.96;35.37
70217;BME280;57608;0.000;0.000;2022-09-02T06:45:24;98872.06;;;21.94;35.46
70217;BME280;57608;0.000;0.000;2022-09-02T06:47:51;98867.88;;;21.92;35.57
70217;BME280;57608;0.000;0.000;2022-09-02T06:50:17;98872.69;;;21.88;35.68
70217;BME280;57608;0.000;0.000;2022-09-02T06:52:43;98878.19;;;21.87;35.76
70217;BME280;57608;0.000;0.000;2022-09-02T06:55:09;98863.34;;;21.84;36.06
70217;BME280;57608;0.000;0.000;2022-09-02T06:57:37;98883.69;;;21.85;36.05
70217;BME280;57608;0.000;0.000;2022-09-02T07:00:08;98875.38;;;21.88;36.25
70217;BME280;57608;0.000;0.000;2022-09-02T07:02:34;98884.88;;;21.91;36.19
70217;BME280;57608;0.000;0.000;2022-09-02T07:05:00;98882.56;;;21.96;36.05
70217;BME280;57608;0.000;0.000;2022-09-02T07:07:37;98882.28;;;21.99;36.00
70217;BME280;57608;0.000;0.000;2022-09-02T07:10:06;98882.75;;;22.03;36.09
70217;BME280;57608;0.000;0.000;2022-09-02T07:12:36;98874.59;;;22.04;36.14
70217;BME280;57608;0.000;0.000;2022-09-02T07:15:01;98893.13;;;22.06;36.03
70217;BME280;57608;0.000;0.000;2022-09-02T07:17:27;98888.94;;;22.03;35.88
70217;BME280;57608;0.000;0.000;2022-09-02T07:19:52;98897.09;;;22.02;35.77
70217;BME280;57608;0.000;0.000;2022-09-02T07:22:21;98891.25;;;21.98;35.77
70217;BME280;57608;0.000;0.000;2022-09-02T07:24:47;98894.91;;;21.97;35.88
70217;BME280;57608;0.000;0.000;2022-09-02T07:27:13;98909.06;;;21.98;35.81
70217;BME280;57608;0.000;0.000;2022-09-02T07:29:41;98902.75;;;21.99;35.77
70217;BME280;57608;0.000;0.000;2022-09-02T07:32:08;98906.94;;;22.01;35.79
70217;BME280;57608;0.000;0.000;2022-09-02T07:34:34;98906.59;;;22.04;35.65
70217;BME280;57608;0.000;0.000;2022-09-02T07:37:00;98903.63;;;22.07;35.64
70217;BME280;57608;0.000;0.000;2022-09-02T07:39:26;98892.78;;;22.09;35.57
70217;BME280;57608;0.000;0.000;2022-09-02T07:41:51;98898.66;;;22.13;35.50
70217;BME280;57608;0.000;0.000;2022-09-02T07:44:18;98897.66;;;22.14;35.42
70217;BME280;57608;0.000;0.000;2022-09-02T07:46:44;98892.81;;;22.17;35.44
70217;BME280;57608;0.000;0.000;2022-09-02T07:49:11;98891.66;;;22.20;35.46
70217;BME280;57608;0.000;0.000;2022-09-02T07:51:41;98903.03;;;22.22;35.36
70217;BME280;57608;0.000;0.000;2022-09-02T07:54:09;98915.38;;;22.23;35.21
70217;BME280;57608;0.000;0.000;2022-09-02T07:56:35;98907.38;;;22.23;35.10
70217;BME280;57608;0.000;0.000;2022-09-02T07:59:00;98922.38;;;22.24;35.22
70217;BME280;57608;0.000;0.000;2022-09-02T08:01:26;98926.56;;;22.26;35.53
70217;BME280;57608;0.000;0.000;2022-09-02T08:03:52;98920.38;;;22.26;35.60
70217;BME280;57608;0.000;0.000;2022-09-02T08:06:18;98927.38;;;22.27;35.60
70217;BME280;57608;0.000;0.000;2022-09-02T08:08:45;98931.03;;;22.26;35.82
70217;BME280;57608;0.000;0.000;2022-09-02T08:11:10;98931.22;;;22.24;35.56
70217;BME280;57608;0.000;0.000;2022-09-02T08:13:39;98928.03;;;22.21;35.65
70217;BME280;57608;0.000;0.000;2022-09-02T08:16:05;98933.69;;;22.18;35.68
70217;BME280;57608;0.000;0.000;2022-09-02T08:18:31;98928.66;;;22.15;35.64
70217;BME280;57608;0.000;0.000;2022-09-02T08:20:57;98937.00;;;22.11;35.67
70217;BME280;57608;0.000;0.000;2022-09-02T08:23:22;98942.66;;;22.08;35.58
70217;BME280;57608;0.000;0.000;2022-09-02T08:25:48;98956.28;;;22.05;35.72
70217;BME280;57608;0.000;0.000;2022-09-02T08:28:13;98955.63;;;22.03;35.87
70217;BME280;57608;0.000;0.000;2022-09-02T08:30:39;98963.09;;;22.00;35.67
70217;BME280;57608;0.000;0.000;2022-09-02T08:33:05;98975.63;;;21.99;35.72
70217;BME280;57608;0.000;0.000;2022-09-02T08:35:31;98964.78;;;22.01;35.94
70217;BME280;57608;0.000;0.000;2022-09-02T08:37:57;98971.78;;;22.02;35.78
70217;BME280;57608;0.000;0.000;2022-09-02T08:40:29;98963.63;;;22.03;35.95
70217;BME280;57608;0.000;0.000;2022-09-02T08:42:55;98964.78;;;22.01;35.90
70217;BME280;57608;0.000;0.000;2022-09-02T08:45:36;98971.78;;;22.02;35.93
70217;BME280;57608;0.000;0.000;2022-09-02T08:48:12;98976.59;;;21.98;35.89
70217;BME280;57608;0.000;0.000;2022-09-02T08:50:43;98973.25;;;21.96;35.90
70217;BME280;57608;0.000;0.000;2022-09-02T08:53:29;98974.22;;;21.95;35.91
70217;BME280;57608;0.000;0.000;2022-09-02T08:56:00;98974.41;;;21.93;35.98
70217;BME280;57608;0.000;0.000;2022-09-02T08:58:33;98974.22;;;21.95;35.74
70217;BME280;57608;0.000;0.000;2022-09-02T09:06:22;98983.13;;;22.04;35.78
70217;BME280;57608;0.000;0.000;2022-09-02T09:09:29;98982.81;;;22.07;35.84
70217;BME280;57608;0.000;0.000;2022-09-02T09:19:52;98985.38;;;22.17;35.69
70217;BME280;57608;0.000;0.000;2022-09-02T09:22:22;98985.03;;;22.20;35.31
70217;BME280;57608;0.000;0.000;2022-09-02T09:24:54;98983.22;;;22.20;35.14
70217;BME280;57608;0.000;0.000;2022-09-02T09:27:21;98995.56;;;22.21;35.38
70217;BME280;57608;0.000;0.000;2022-09-02T09:29:50;98996.41;;;22.22;35.19
70217;BME280;57608;0.000;0.000;2022-09-02T09:32:28;98999.06;;;22.22;35.14
70217;BME280;57608;0.000;0.000;2022-09-02T09:35:14;99007.06;;;22.22;35.24
70217;BME280;57608;0.000;0.000;2022-09-02T09:37:41;99009.75;;;22.22;35.01
70217;BME280;57608;0.000;0.000;2022-09-02T09:45:33;99030.19;;;22.13;35.28
70217;BME280;57608;0.000;0.000;2022-09-02T09:48:07;99036.69;;;22.10;35.86
70217;BME280;57608;0.000;0.000;2022-09-02T09:50:35;99033.34;;;22.08;36.23
70217;BME280;57608;0.000;0.000;2022-09-02T10:01:26;99036.47;;;22.04;36.36
70217;BME280;57608;0.000;0.000;2022-09-02T10:04:03;99039.97;;;22.04;36.98
70217;BME280;57608;0.000;0.000;2022-09-02T10:09:02;99040.34;;;22.09;37.39
70217;BME280;57608;0.000;0.000;2022-09-02T10:11:30;99044.03;;;22.08;37.30
70217;BME280;57608;0.000;0.000;2022-09-02T10:14:07;99052.16;;;22.07;37.05
70217;BME280;57608;0.000;0.000;2022-09-02T10:19:46;99047.47;;;22.01;36.93
70217;BME280;57608;0.000;0.000;2022-09-02T10:22:36;99046.94;;;21.97;36.82
70217;BME280;57608;0.000;0.000;2022-09-02T10:31:35;99065.78;;;21.95;36.56
70217;BME280;57608;0.000;0.000;2022-09-02T10:34:15;99061.09;;;21.98;36.69
70217;BME280;57608;0.000;0.000;2022-09-02T10:40:06;99081.00;;;22.03;36.60
70217;BME280;57608;0.000;0.000;2022-09-02T10:45:44;99090.19;;;22.09;36.34
70217;BME280;57608;0.000;0.000;2022-09-02T10:48:20;99103.38;;;22.10;36.31
70217;BME280;57608;0.000;0.000;2022-09-02T10:50:53;99098.56;;;22.14;36.44
70217;BME280;57608;0.000;0.000;2022-09-02T10:53:38;99101.06;;;22.16;36.25
70217;BME280;57608;0.000;0.000;2022-09-02T10:59:01;99113.28;;;22.18;36.21
70217;BME280;57608;0.000;0.000;2022-09-02T11:06:57;99113.97;;;22.20;36.30
70217;BME280;57608;0.000;0.000;2022-09-02T11:17:19;99117.03;;;22.07;36.23
70217;BME280;57608;0.000;0.000;2022-09-02T11:22:58;99120.63;;;21.98;36.15
70217;BME280;57608;0.000;0.000;2022-09-02T11:25:41;99120.94;;;21.95;36.19
70217;BME280;57608;0.000;0.000;2022-09-02T11:28:23;99126.56;;;21.92;36.33
70217;BME280;57608;0.000;0.000;2022-09-02T11:31:14;99128.53;;;21.90;36.35
70217;BME280;57608;0.000;0.000;2022-09-02T11:34:01;99124.91;;;21.91;36.13
70217;BME280;57608;0.000;0.000;2022-09-02T11:36:29;99122.38;;;21.89;36.18
70217;BME280;57608;0.000;0.000;2022-09-02T11:39:06;99115.91;;;21.92;36.17
70217;BME280;57608;0.000;0.000;2022-09-02T11:42:12;99141.75;;;21.91;36.34
70217;BME280;57608;0.000;0.000;2022-09-02T11:54:59;99138.06;;;21.74;36.23
70217;BME280;57608;0.000;0.000;2022-09-02T11:57:28;99139.75;;;21.75;36.20
70217;BME280;57608;0.000;0.000;2022-09-02T12:02:38;99133.44;;;21.76;35.88
70217;BME280;57608;0.000;0.000;2022-09-02T12:08:02;99142.81;;;21.81;36.06
70217;BME280;57608;0.000;0.000;2022-09-02T12:18:38;99146.38;;;21.89;35.67
70217;BME280;57608;0.000;0.000;2022-09-02T12:21:11;99146.06;;;21.92;35.88
70217;BME280;57608;0.000;0.000;2022-09-02T12:31:50;99152.63;;;21.98;35.80
70217;BME280;57608;0.000;0.000;2022-09-02T12:36:58;99161.47;;;21.99;35.72
70217;BME280;57608;0.000;0.000;2022-09-02T12:45:12;99159.72;;;21.89;35.74
70217;BME280;57608;0.000;0.000;2022-09-02T12:47:58;99161.19;;;21.84;35.53
70217;BME280;57608;0.000;0.000;2022-09-02T12:50:58;99157.13;;;21.79;35.58
70217;BME280;57608;0.000;0.000;2022-09-02T12:53:24;99159.28;;;21.76;35.48
70217;BME280;57608;0.000;0.000;2022-09-02T12:58:47;99163.53;;;21.69;35.62
70217;BME280;57608;0.000;0.000;2022-09-02T13:04:23;99167.72;;;21.71;35.73
70217;BME280;57608;0.000;0.000;2022-09-02T13:30:04;99225.19;;;21.56;35.65
70217;BME280;57608;0.000;0.000;2022-09-02T13:32:31;99218.56;;;21.60;36.06
70217;BME280;57608;0.000;0.000;2022-09-02T13:35:06;99232.28;;;21.65;35.85
70217;BME280;57608;0.000;0.000;2022-09-02T13:37:37;99232.69;;;21.70;35.94
70217;BME280;57608;0.000;0.000;2022-09-02T13:40:30;99226.91;;;21.75;36.03
70217;BME280;57608;0.000;0.000;2022-09-02T13:43:19;99231.09;;;21.77;36.01
70217;BME280;57608;0.000;0.000;2022-09-02T13:45:46;99229.81;;;21.82;36.05
70217;BME280;57608;0.000;0.000;2022-09-02T13:48:20;99226.84;;;21.85;36.08
70217;BME280;57608;0.000;0.000;2022-09-02T13:50:51;99236.38;;;21.87;36.21
70217;BME280;57608;0.000;0.000;2022-09-02T13:53:23;99230.75;;;21.90;35.88
70217;BME280;57608;0.000;0.000;2022-09-02T13:55:53;99235.94;;;21.92;36.00
70217;BME280;57608;0.000;0.000;2022-09-02T14:00:56;99239.13;;;21.95;36.04
70217;BME280;57608;0.000;0.000;2022-09-02T14:03:22;99246.81;;;21.99;36.06
70217;BME280;57608;0.000;0.000;2022-09-02T14:05:50;99238.00;;;21.98;36.12
70217;BME280;57608;0.000;0.000;2022-09-02T14:08:21;99236.31;;;21.97;35.83
70217;BME280;57608;0.000;0.000;2022-09-02T14:10:48;99237.44;;;21.94;36.05
70217;BME280;57608;0.000;0.000;2022-09-02T14:13:17;99243.94;;;21.92;36.03
70217;BME280;57608;0.000;0.000;2022-09-02T14:15:43;99239.88;;;21.88;36.04
70217;BME280;57608;0.000;0.000;2022-09-02T14:20:57;99247.78;;;21.79;35.80
70217;BME280;57608;0.000;0.000;2022-09-02T14:23:26;99243.59;;;21.77;36.10
70217;BME280;57608;0.000;0.000;2022-09-02T14:25:57;99248.25;;;21.75;36.08
70217;BME280;57608;0.000;0.000;2022-09-02T14:28:28;99262.56;;;21.74;36.22
70217;BME280;57608;0.000;0.000;2022-09-02T14:30:57;99269.56;;;21.75;36.11
70217;BME280;57608;0.000;0.000;2022-09-02T14:33:40;99276.59;;;21.76;35.91
70217;BME280;57608;0.000;0.000;2022-09-02T14:36:31;99279.25;;;21.76;36.05
70217;BME280;57608;0.000;0.000;2022-09-02T14:39:13;99290.91;;;21.75;36.08
70217;BME280;57608;0.000;0.000;2022-09-02T14:41:48;99283.06;;;21.73;36.29
70217;BME280;57608;0.000;0.000;2022-09-02T14:46:54;99274.66;;;21.68;36.84
70217;BME280;57608;0.000;0.000;2022-09-02T14:51:58;99273.28;;;21.64;37.49
70217;BME280;57608;0.000;0.000;2022-09-02T14:54:47;99281.28;;;21.64;37.22
70217;BME280;57608;0.000;0.000;2022-09-02T14:59:50;99272.97;;;21.67;38.52
70217;BME280;57608;0.000;0.000;2022-09-02T15:04:56;99273.06;;;21.75;38.40
70217;BME280;57608;0.000;0.000;2022-09-02T15:07:22;99275.47;;;21.78;38.22
70217;BME280;57608;0.000;0.000;2022-09-02T15:09:48;99277.97;;;21.80;38.20
70217;BME280;57608;0.000;0.000;2022-09-02T15:12:31;99276.84;;;21.83;37.88
70217;BME280;57608;0.000;0.000;2022-09-02T15:14:58;99284.53;;;21.86;38.03
70217;BME280;57608;0.000;0.000;2022-09-02T15:17:24;99283.53;;;21.87;37.78
70217;BME280;57608;0.000;0.000;2022-09-02T15:19:52;99286.06;;;21.88;37.76
70217;BME280;57608;0.000;0.000;2022-09-02T15:22:18;99292.25;;;21.89;37.60
70217;BME280;57608;0.000;0.000;2022-09-02T15:24:44;99290.25;;;21.91;37.52
70217;BME280;57608;0.000;0.000;2022-09-02T15:27:12;99296.44;;;21.91;37.50
70217;BME280;57608;0.000;0.000;2022-09-02T15:29:38;99302.44;;;21.93;37.49
70217;BME280;57608;0.000;0.000;2022-09-02T15:32:04;99303.31;;;21.94;37.33
70217;BME280;57608;0.000;0.000;2022-09-02T15:34:31;99301.63;;;21.93;37.41
70217;BME280;57608;0.000;0.000;2022-09-02T15:36:56;99297.56;;;21.89;37.52
70217;BME280;57608;0.000;0.000;2022-09-02T15:39:23;99302.22;;;21.87;37.25
70217;BME280;57608;0.000;0.000;2022-09-02T15:41:51;99303.50;;;21.83;37.33
70217;BME280;57608;0.000;0.000;2022-09-02T15:44:18;99306.44;;;21.79;37.29
70217;BME280;57608;0.000;0.000;2022-09-02T15:46:44;99297.06;;;21.75;37.22
70217;BME280;57608;0.000;0.000;2022-09-02T15:49:11;99306.34;;;21.71;37.46